Time;durP1;ratioP1;P1;durP2;ratioP2;P2;SDS_P1;SDS_P2;PMS_P1;PMS_P2;Temp;Humidity;BMP_temperature;BMP_pressure;BME280_temperature;BME280_humidity;BME280_pressure;Samples;Min_cycle;Max_cycle;Signal;HPM_P1;HPM_P2
2021/01/21 00:00:50;;;;;;;32.45;13.18;;;;;;;3.25;75.55;99320.98;1788359;80;21110;-77
2021/01/21 00:03:16;;;;;;;40.55;15.85;;;;;;;3.29;75.56;99316.59;1788313;80;21182;-77
2021/01/21 00:05:42;;;;;;;45.85;17.00;;;;;;;3.29;75.56;99312.63;1788503;80;21700;-77
2021/01/21 00:08:09;;;;;;;41.85;13.98;;;;;;;3.28;75.57;99309.65;1788194;80;21170;-77
2021/01/21 00:10:35;;;;;;;38.83;14.30;;;;;;;3.32;75.56;99308.37;1786916;79;22160;-77
2021/01/21 00:13:01;;;;;;;34.30;12.98;;;;;;;3.38;75.53;99302.98;1763120;80;21134;-77
2021/01/21 00:15:28;;;;;;;25.43;11.68;;;;;;;3.39;75.52;99305.96;1768651;81;21190;-76
2021/01/21 00:17:54;;;;;;;27.95;12.25;;;;;;;3.37;75.52;99305.30;1782174;80;21167;-77
2021/01/21 00:20:20;;;;;;;27.50;10.60;;;;;;;3.36;75.48;99305.78;1782541;80;21165;-77
2021/01/21 00:22:47;;;;;;;23.65;9.93;;;;;;;3.37;75.47;99307.45;1782698;80;21917;-77
2021/01/21 00:25:13;;;;;;;20.62;9.58;;;;;;;3.35;75.47;99302.80;1753010;81;21199;-77
2021/01/21 00:27:39;;;;;;;30.97;12.70;;;;;;;3.38;75.47;99299.03;1752186;81;21144;-77
2021/01/21 00:30:09;;;;;;;43.50;15.15;;;;;;;3.42;75.45;99299.91;1752642;81;21139;-77
2021/01/21 00:32:35;;;;;;;58.55;19.20;;;;;;;3.44;75.43;99303.23;1752862;81;21184;-77
2021/01/21 00:35:01;;;;;;;40.75;14.68;;;;;;;3.43;75.44;99301.56;1751792;81;21204;-77
2021/01/21 00:37:28;;;;;;;26.80;11.57;;;;;;;3.43;75.44;99302.05;1781588;80;21196;-77
2021/01/21 00:39:54;;;;;;;24.98;11.38;;;;;;;3.40;75.46;99304.51;1781771;79;21573;-77
2021/01/21 00:42:20;;;;;;;22.80;11.43;;;;;;;3.36;75.46;99297.88;1752396;81;21188;-77
2021/01/21 00:44:47;;;;;;;21.40;10.85;;;;;;;3.33;75.48;99298.19;1781652;80;21151;-77
2021/01/21 00:47:13;;;;;;;27.25;10.75;;;;;;;3.31;75.46;99292.22;1753101;80;21276;-76
2021/01/21 00:49:39;;;;;;;24.72;10.08;;;;;;;3.31;75.47;99290.91;1722704;83;21650;-77
2021/01/21 00:52:06;;;;;;;23.22;9.93;;;;;;;3.31;75.45;99284.31;1750910;81;21187;-77
2021/01/21 00:54:32;;;;;;;21.68;9.83;;;;;;;3.31;75.46;99288.75;1750804;81;21173;-77
2021/01/21 00:56:58;;;;;;;22.48;8.90;;;;;;;3.31;75.49;99286.12;1750664;81;21189;-77
2021/01/21 00:59:25;;;;;;;21.65;8.88;;;;;;;3.33;75.47;99282.38;1750954;81;21808;-76
2021/01/21 01:01:51;;;;;;;28.83;11.28;;;;;;;3.34;75.47;99284.01;1750963;81;21614;-76
2021/01/21 01:04:17;;;;;;;34.50;13.60;;;;;;;3.35;75.49;99275.14;1750687;81;21225;-76
2021/01/21 01:06:44;;;;;;;32.42;11.38;;;;;;;3.38;75.50;99272.19;1751007;81;21164;-76
2021/01/21 01:09:10;;;;;;;21.60;9.65;;;;;;;3.43;75.52;99269.94;1746540;81;21145;-76
2021/01/21 01:11:36;;;;;;;20.30;8.95;;;;;;;3.48;75.55;99272.13;1702504;84;21270;-76
2021/01/21 01:14:03;;;;;;;20.05;9.00;;;;;;;3.51;75.57;99276.61;1702107;84;21182;-76
2021/01/21 01:16:29;;;;;;;20.30;8.48;;;;;;;3.54;75.56;99279.42;1714278;83;21182;-76
2021/01/21 01:18:55;;;;;;;17.82;8.58;;;;;;;3.57;75.57;99271.69;1723285;82;21193;-76
2021/01/21 01:21:22;;;;;;;22.87;10.05;;;;;;;3.57;75.60;99270.37;1736707;82;21177;-77
2021/01/21 01:23:48;;;;;;;20.02;9.25;;;;;;;3.57;75.60;99259.83;1736633;82;21283;-76
2021/01/21 01:26:14;;;;;;;23.98;10.08;;;;;;;3.56;75.57;99264.27;1735964;82;22345;-77
2021/01/21 01:28:42;;;;;;;18.30;9.30;;;;;;;3.56;75.58;99256.36;1736451;82;21151;-77
2021/01/21 01:31:09;;;;;;;20.60;9.53;;;;;;;3.56;75.56;99257.67;1735815;82;21633;-77
2021/01/21 01:33:35;;;;;;;22.10;9.98;;;;;;;3.56;75.55;99255.53;1736793;82;21223;-77
2021/01/21 01:36:02;;;;;;;33.40;11.75;;;;;;;3.55;75.56;99259.17;1736382;82;21165;-77
2021/01/21 01:38:28;;;;;;;28.32;10.25;;;;;;;3.53;75.54;99251.40;1736448;82;21164;-77
2021/01/21 01:40:55;;;;;;;20.80;9.20;;;;;;;3.55;75.55;99248.14;1705768;84;21169;-77
2021/01/21 01:43:21;;;;;;;22.07;8.70;;;;;;;3.59;75.53;99251.30;1736372;82;21182;-77
2021/01/21 01:45:48;;;;;;;21.87;8.90;;;;;;;3.62;75.53;99249.66;1750916;80;21581;-77
2021/01/21 01:48:14;;;;;;;24.57;9.18;;;;;;;3.66;75.57;99242.59;1782027;79;22164;-77
2021/01/21 01:50:40;;;;;;;18.75;8.48;;;;;;;3.71;75.56;99248.73;1781933;80;21202;-77
2021/01/21 01:53:06;;;;;;;21.20;8.58;;;;;;;3.72;75.59;99243.80;1781919;80;21148;-77
2021/01/21 01:55:33;;;;;;;16.77;8.40;;;;;;;3.74;75.57;99245.77;1781991;80;21220;-77
2021/01/21 01:57:59;;;;;;;23.25;9.50;;;;;;;3.75;75.56;99244.31;1781139;80;21183;-77
2021/01/21 02:00:27;;;;;;;51.53;18.37;;;;;;;3.77;75.59;99246.78;1781817;80;21644;-77
2021/01/21 02:02:53;;;;;;;47.48;15.60;;;;;;;3.79;75.57;99240.88;1781882;80;21586;-77
2021/01/21 02:05:20;;;;;;;24.90;11.12;;;;;;;3.80;75.57;99239.91;1781986;80;21160;-77
2021/01/21 02:07:47;;;;;;;18.98;9.83;;;;;;;3.82;75.53;99235.29;1781975;80;21572;-76
2021/01/21 02:10:15;;;;;;;22.62;9.65;;;;;;;3.80;75.52;99239.91;1769009;80;21140;-77
2021/01/21 02:13:27;;;;;;;16.60;8.55;;;;;;;3.79;75.50;99231.66;1760121;81;21648;-77
2021/01/21 02:16:29;;;;;;;16.42;8.35;;;;;;;3.80;75.46;99234.62;1759438;80;21239;-76
2021/01/21 02:19:07;;;;;;;19.15;9.13;;;;;;;3.82;75.43;99227.38;1756074;80;21219;-77
2021/01/21 02:22:20;;;;;;;18.65;9.38;;;;;;;3.82;75.43;99222.11;1754021;81;21192;-77
2021/01/21 02:25:06;;;;;;;18.30;9.03;;;;;;;3.82;75.40;99231.34;1756934;80;21176;-77
2021/01/21 02:27:44;;;;;;;17.15;9.10;;;;;;;3.83;75.39;99223.77;1756510;81;21202;-77
2021/01/21 02:30:15;;;;;;;17.23;9.73;;;;;;;3.83;75.38;99225.09;1756830;81;21628;-77
2021/01/21 02:33:04;;;;;;;27.50;11.33;;;;;;;3.82;75.37;99227.38;1756661;81;21167;-77
2021/01/21 02:35:30;;;;;;;29.92;13.13;;;;;;;3.83;75.33;99218.50;1755070;81;21667;-77
2021/01/21 02:37:57;;;;;;;24.23;11.38;;;;;;;3.82;75.31;99219.47;1756862;81;21171;-76
2021/01/21 02:40:23;;;;;;;20.85;11.33;;;;;;;3.84;75.27;99217.48;1737437;81;21644;-77
2021/01/21 02:42:49;;;;;;;21.00;11.50;;;;;;;3.84;75.24;99217.48;1756924;81;21163;-77
2021/01/21 02:45:16;;;;;;;18.95;10.23;;;;;;;3.85;75.22;99222.63;1759410;80;21131;-77
2021/01/21 02:47:42;;;;;;;18.70;9.35;;;;;;;3.85;75.19;99216.52;1786242;80;21192;-77
2021/01/21 02:50:09;;;;;;;18.92;9.85;;;;;;;3.86;75.17;99222.13;1786245;80;21148;-77
2021/01/21 02:55:46;;;;;;;18.30;9.78;;;;;;;3.96;75.17;99218.89;1814843;77;22688;-73
2021/01/21 02:58:35;;;;;;;17.17;9.85;;;;;;;3.92;75.15;99218.38;1787049;80;21139;-75
2021/01/21 03:01:02;;;;;;;18.00;9.70;;;;;;;3.94;75.18;99218.23;1756509;80;21304;-77
2021/01/21 03:03:29;;;;;;;19.57;10.58;;;;;;;3.93;75.17;99213.45;1786775;80;21615;-77
2021/01/21 03:05:57;;;;;;;31.75;14.78;;;;;;;3.95;75.16;99218.55;1787109;80;21163;-78
2021/01/21 03:08:27;;;;;;;31.12;14.55;;;;;;;3.94;75.16;99219.03;1786613;80;21142;-77
2021/01/21 03:11:09;;;;;;;30.27;13.32;;;;;;;3.93;75.16;99219.20;1776978;79;21167;-78
2021/01/21 03:13:38;;;;;;;20.80;11.70;;;;;;;3.96;75.15;99224.16;1755610;81;22111;-77
2021/01/21 03:16:05;;;;;;;21.07;10.55;;;;;;;3.96;75.17;99228.12;1722819;81;21210;-77
2021/01/21 03:18:31;;;;;;;19.25;10.85;;;;;;;3.98;75.17;99222.19;1736857;81;21146;-77
2021/01/21 03:20:57;;;;;;;18.30;10.93;;;;;;;4.01;75.19;99225.86;1726424;83;21163;-77
2021/01/21 03:23:24;;;;;;;21.48;10.65;;;;;;;4.02;75.21;99223.53;1726459;82;21139;-77
2021/01/21 03:25:50;;;;;;;16.32;10.35;;;;;;;4.03;75.23;99220.75;1726368;83;21576;-77
2021/01/21 03:28:17;;;;;;;23.00;11.18;;;;;;;4.04;75.25;99230.81;1726404;83;21172;-77
2021/01/21 03:30:43;;;;;;;30.25;13.58;;;;;;;4.06;75.27;99226.68;1726265;82;21143;-77
2021/01/21 03:33:09;;;;;;;30.72;14.58;;;;;;;4.08;75.27;99228.20;1726479;83;21151;-77
2021/01/21 03:35:36;;;;;;;28.70;13.03;;;;;;;4.07;75.27;99230.50;1726408;83;21123;-77
2021/01/21 03:38:02;;;;;;;22.02;11.18;;;;;;;4.08;75.28;99235.28;1726353;83;21496;-77
2021/01/21 03:40:28;;;;;;;19.60;10.58;;;;;;;4.04;75.29;99234.77;1726319;83;21171;-77
2021/01/21 03:42:54;;;;;;;20.88;11.15;;;;;;;4.05;75.28;99239.56;1726574;83;21162;-77
2021/01/21 03:45:21;;;;;;;21.12;10.53;;;;;;;4.03;75.30;99231.30;1725906;83;21632;-77
2021/01/21 03:47:47;;;;;;;21.02;10.80;;;;;;;4.04;75.30;99234.77;1726445;83;21155;-77
2021/01/21 03:50:13;;;;;;;19.17;10.50;;;;;;;4.05;75.33;99234.28;1726650;82;21308;-77
2021/01/21 03:52:40;;;;;;;17.98;9.40;;;;;;;4.05;75.32;99236.92;1726073;81;21130;-77
2021/01/21 03:55:07;;;;;;;18.37;9.88;;;;;;;4.05;75.34;99233.77;1729927;82;21178;-77
2021/01/21 03:57:34;;;;;;;16.42;9.83;;;;;;;4.08;75.38;99230.01;1731714;82;21598;-77
2021/01/21 04:00:00;;;;;;;19.23;11.80;;;;;;;4.10;75.41;99236.77;1731888;82;21112;-77
2021/01/21 04:02:26;;;;;;;24.07;13.15;;;;;;;4.10;75.43;99232.81;1731869;82;21209;-77
2021/01/21 04:04:53;;;;;;;32.05;14.63;;;;;;;4.10;75.46;99231.49;1731473;82;21163;-76
2021/01/21 04:07:19;;;;;;;34.80;15.50;;;;;;;4.09;75.47;99224.55;1731471;82;21131;-77
2021/01/21 04:09:45;;;;;;;23.67;12.20;;;;;;;4.08;75.48;99225.56;1743189;81;21576;-76
2021/01/21 04:12:12;;;;;;;21.62;12.15;;;;;;;4.06;75.50;99218.77;1761891;80;21151;-76
2021/01/21 04:14:38;;;;;;;22.77;11.70;;;;;;;4.04;75.50;99225.53;1761417;81;21197;-76
2021/01/21 04:17:04;;;;;;;20.32;11.97;;;;;;;4.03;75.51;99227.83;1761442;81;21202;-76
2021/01/21 04:19:30;;;;;;;19.37;10.98;;;;;;;4.03;75.51;99217.28;1761551;81;21148;-76
2021/01/21 04:21:57;;;;;;;21.68;11.93;;;;;;;4.03;75.50;99219.91;1761507;81;21162;-77
2021/01/21 04:24:23;;;;;;;21.48;11.25;;;;;;;4.01;75.50;99222.70;1761466;81;21617;-76
2021/01/21 04:26:49;;;;;;;20.35;10.30;;;;;;;4.00;75.50;99220.23;1761436;81;21195;-76
2021/01/21 04:29:16;;;;;;;19.52;10.45;;;;;;;3.97;75.51;99220.55;1761749;81;21135;-77
2021/01/21 04:31:42;;;;;;;22.05;10.38;;;;;;;3.93;75.53;99213.45;1761421;81;21159;-76
2021/01/21 04:34:08;;;;;;;26.15;12.10;;;;;;;3.90;75.56;99219.52;1761673;81;21202;-77
2021/01/21 04:36:35;;;;;;;50.45;17.25;;;;;;;3.86;75.59;99219.02;1761645;81;21551;-76
2021/01/21 04:39:03;;;;;;;30.02;12.50;;;;;;;3.81;75.62;99225.72;1761828;81;22081;-76
2021/01/21 04:41:29;;;;;;;23.60;12.03;;;;;;;3.77;75.67;99228.33;1761595;81;21702;-76
2021/01/21 04:43:57;;;;;;;32.73;14.03;;;;;;;3.73;75.71;99223.05;1761539;81;21175;-77
2021/01/21 04:46:23;;;;;;;25.10;11.88;;;;;;;3.68;75.73;99227.95;1761671;81;21128;-77
2021/01/21 04:48:50;;;;;;;30.40;14.60;;;;;;;3.63;75.74;99226.25;1761343;81;21540;-77
2021/01/21 04:51:16;;;;;;;33.38;13.85;;;;;;;3.60;75.76;99212.07;1761697;81;21163;-77
2021/01/21 04:53:50;;;;;;;25.27;12.65;;;;;;;3.56;75.77;99218.63;1761371;81;21611;-77
2021/01/21 04:56:25;;;;;;;29.07;13.18;;;;;;;3.53;75.81;99213.19;1757253;81;21151;-77
2021/01/21 04:58:57;;;;;;;33.53;12.58;;;;;;;3.52;75.82;99212.35;1761649;81;21147;-77
2021/01/21 05:01:23;;;;;;;29.95;14.13;;;;;;;3.55;75.80;99217.00;1761532;81;21111;-78
2021/01/21 05:03:49;;;;;;;32.03;14.35;;;;;;;3.56;75.81;99208.92;1761687;81;21203;-78
2021/01/21 05:06:16;;;;;;;18.37;9.48;;;;;;;3.59;75.83;99202.53;1761262;81;21572;-77
2021/01/21 05:08:42;;;;;;;18.17;10.08;;;;;;;3.64;75.82;99188.38;1761574;81;21206;-78
2021/01/21 05:11:08;;;;;;;18.95;10.23;;;;;;;3.67;75.83;99192.02;1732101;81;21540;-77
2021/01/21 05:13:35;;;;;;;20.12;11.03;;;;;;;3.69;75.85;99192.70;1731326;81;21179;-77
2021/01/21 05:16:01;;;;;;;14.83;8.83;;;;;;;3.70;75.85;99189.06;1731337;82;22073;-78
2021/01/21 05:18:31;;;;;;;15.35;9.70;;;;;;;3.71;75.86;99185.45;1730991;82;21158;-77
2021/01/21 05:20:58;;;;;;;13.83;8.90;;;;;;;3.72;75.87;99191.07;1704543;82;21195;-77
2021/01/21 05:23:28;;;;;;;15.88;9.15;;;;;;;3.74;75.84;99181.19;1731087;82;21151;-77
2021/01/21 05:25:55;;;;;;;17.80;10.05;;;;;;;3.75;75.83;99185.48;1704726;82;21202;-77
2021/01/21 05:28:21;;;;;;;15.55;9.43;;;;;;;3.74;75.83;99177.23;1731165;82;21651;-77
2021/01/21 05:30:48;;;;;;;15.98;9.30;;;;;;;3.72;75.81;99171.30;1731261;82;21166;-77
2021/01/21 05:33:15;;;;;;;17.50;8.90;;;;;;;3.72;75.80;99168.66;1731234;82;21190;-77
2021/01/21 05:35:42;;;;;;;13.30;7.42;;;;;;;3.70;75.81;99166.66;1731172;82;21142;-77
2021/01/21 05:38:09;;;;;;;15.90;9.23;;;;;;;3.70;75.79;99164.02;1731276;81;21194;-77
2021/01/21 05:40:35;;;;;;;15.00;8.38;;;;;;;3.72;75.80;99155.48;1731190;82;21247;-77
2021/01/21 05:43:02;;;;;;;19.90;10.10;;;;;;;3.71;75.78;99156.45;1731252;82;21207;-77
2021/01/21 05:45:29;;;;;;;16.05;8.60;;;;;;;3.72;75.79;99162.07;1704015;82;21147;-77
2021/01/21 05:47:59;;;;;;;21.00;9.08;;;;;;;3.71;75.77;99164.36;1731526;82;21126;-77
2021/01/21 05:50:26;;;;;;;18.82;10.13;;;;;;;3.69;75.76;99172.45;1731178;82;21206;-77
2021/01/21 05:52:56;;;;;;;17.45;10.58;;;;;;;3.66;75.76;99173.25;1731191;81;21187;-77
2021/01/21 05:55:24;;;;;;;17.02;10.30;;;;;;;3.63;75.77;99165.63;1728372;82;21191;-77
2021/01/21 05:57:51;;;;;;;15.18;9.33;;;;;;;3.60;75.74;99173.36;1725485;83;21142;-77
2021/01/21 06:00:18;;;;;;;17.10;8.83;;;;;;;3.58;75.75;99163.97;1725743;83;21167;-77
2021/01/21 06:02:44;;;;;;;15.43;8.93;;;;;;;3.57;75.74;99166.26;1725663;83;21163;-77
2021/01/21 06:05:21;;;;;;;15.72;9.33;;;;;;;3.56;75.76;99165.91;1725653;82;21766;-77
2021/01/21 06:07:48;;;;;;;15.83;8.55;;;;;;;3.59;75.79;99166.43;1725505;83;21182;-77
2021/01/21 06:10:15;;;;;;;15.35;8.58;;;;;;;3.61;75.79;99157.06;1743683;81;21143;-77
2021/01/21 06:12:48;;;;;;;15.28;9.63;;;;;;;3.65;75.80;99161.88;1755901;80;21167;-77
2021/01/21 06:15:15;;;;;;;15.80;9.55;;;;;;;3.66;75.80;99160.87;1755679;80;21139;-77
2021/01/21 06:17:42;;;;;;;14.23;9.78;;;;;;;3.68;75.80;99154.14;1750216;81;21263;-77
2021/01/21 06:20:10;;;;;;;35.52;17.37;;;;;;;3.70;75.79;99152.16;1751571;81;21176;-77
2021/01/21 06:22:40;;;;;;;36.45;16.55;;;;;;;3.71;75.78;99149.86;1757167;81;21179;-77
2021/01/21 06:25:10;;;;;;;21.52;11.70;;;;;;;3.73;75.78;99153.19;1757389;81;21152;-77
2021/01/21 06:27:37;;;;;;;;;;;;;;;3.73;75.78;99154.51;1759631;81;21161;-77
2021/01/21 06:30:05;;;;;;;21.20;9.68;;;;;;;3.74;75.76;99148.23;1757355;81;21366;-77
2021/01/21 06:32:34;;;;;;;25.48;10.72;;;;;;;3.76;75.74;99137.88;1756553;81;21196;-77
2021/01/21 06:35:04;;;;;;;24.02;12.50;;;;;;;3.76;75.74;99135.25;1757255;81;21121;-77
2021/01/21 06:37:33;;;;;;;28.20;12.90;;;;;;;3.76;75.74;99139.69;1757306;81;27312;-78
2021/01/21 06:40:09;;;;;;;25.27;11.55;;;;;;;3.77;75.73;99147.42;1757202;81;21187;-78
2021/01/21 06:42:37;;;;;;;33.60;13.25;;;;;;;3.79;75.76;99145.96;1757201;81;21207;-78
2021/01/21 06:45:04;;;;;;;22.80;11.43;;;;;;;3.79;75.76;99144.64;1756522;81;21196;-78
2021/01/21 06:47:31;;;;;;;24.15;13.13;;;;;;;3.77;75.76;99148.73;1757281;81;21145;-77
2021/01/21 06:49:59;;;;;;;28.70;12.30;;;;;;;3.76;75.75;99144.96;1756914;81;21187;-77
2021/01/21 06:52:28;;;;;;;24.02;11.35;;;;;;;3.75;75.77;99148.09;1757084;81;21214;-77
2021/01/21 06:54:55;;;;;;;24.52;11.00;;;;;;;3.74;75.77;99145.59;1752171;81;21553;-77
2021/01/21 06:57:42;;;;;;;24.87;11.73;;;;;;;3.74;75.76;99150.86;1727508;83;21613;-78
2021/01/21 07:00:12;;;;;;;19.42;10.65;;;;;;;3.76;75.76;99147.11;1727615;82;21605;-77
2021/01/21 07:02:51;;;;;;;28.52;11.95;;;;;;;3.80;75.77;99150.26;1727581;83;21557;-78
2021/01/21 07:05:21;;;;;;;24.52;10.00;;;;;;;3.83;75.77;99158.68;1724539;83;21179;-77
2021/01/21 07:08:01;;;;;;;16.10;9.15;;;;;;;3.88;75.76;99156.87;1727269;81;22054;-78
2021/01/21 07:10:38;;;;;;;52.00;19.70;;;;;;;3.92;75.78;99154.25;1726033;81;21186;-78
2021/01/21 07:13:07;;;;;;;23.70;11.50;;;;;;;3.97;75.79;99158.09;1727292;83;21167;-78
2021/01/21 07:55:44;;;;;;;16.55;11.10;;;;;;;4.51;75.29;99202.95;1722676;82;22091;-78
2021/01/21 07:58:19;;;;;;;20.55;11.57;;;;;;;4.41;75.34;99198.30;1701881;83;21163;-78
2021/01/21 08:00:47;;;;;;;20.82;11.53;;;;;;;4.38;75.37;99208.35;1720812;82;21152;-77
2021/01/21 08:03:14;;;;;;;25.88;13.80;;;;;;;4.32;75.36;99207.19;1701781;82;21216;-79
2021/01/21 08:05:40;;;;;;;27.50;16.37;;;;;;;4.30;75.37;99198.59;1734506;81;21137;-79
2021/01/21 08:08:07;;;;;;;21.27;11.97;;;;;;;4.27;75.38;99200.72;1716903;82;21202;-80
2021/01/21 08:10:36;;;;;;;24.37;12.53;;;;;;;4.26;75.40;99191.14;1718525;82;21245;-80
2021/01/21 08:13:27;;;;;;;26.90;14.13;;;;;;;4.27;75.38;99178.30;1802798;78;22741;-73
2021/01/21 08:15:54;;;;;;;18.55;10.38;;;;;;;4.21;75.39;99189.00;1785686;79;21163;-71
2021/01/21 08:18:20;;;;;;;24.35;14.50;;;;;;;4.21;75.39;99204.00;1793711;79;22277;-70
2021/01/21 08:20:46;;;;;;;29.45;11.93;;;;;;;4.22;75.41;99213.06;1793059;79;21072;-75
2021/01/21 08:23:13;;;;;;;44.27;19.12;;;;;;;4.23;75.43;99202.85;1764573;81;21115;-73
2021/01/21 08:25:49;;;;;;;34.80;13.25;;;;;;;4.24;75.47;99209.80;1780581;79;21191;-76
2021/01/21 08:28:24;;;;;;;28.05;13.00;;;;;;;4.24;75.50;99199.23;1766420;79;21753;-76
2021/01/21 08:30:50;;;;;;;21.90;13.05;;;;;;;4.26;75.52;99199.89;1779414;79;22114;-75
2021/01/21 08:33:25;;;;;;;23.73;13.78;;;;;;;4.27;75.56;99199.41;1758614;80;21215;-76
2021/01/21 08:35:59;;;;;;;22.40;12.53;;;;;;;4.27;75.57;99191.00;1766567;80;21132;-76
2021/01/21 08:38:28;;;;;;;21.77;12.68;;;;;;;4.29;75.60;99198.77;1765939;80;21240;-76
2021/01/21 08:40:55;;;;;;;21.93;12.58;;;;;;;4.30;75.63;99191.99;1761860;80;21171;-76
2021/01/21 08:43:22;;;;;;;22.42;11.45;;;;;;;4.31;75.64;99179.14;1765572;80;21248;-76
2021/01/21 08:45:49;;;;;;;26.23;13.93;;;;;;;4.34;75.65;99180.14;1730366;81;21207;-75
2021/01/21 08:48:31;;;;;;;23.87;12.10;;;;;;;4.39;75.67;99185.78;1705221;83;21592;-76
2021/01/21 08:50:58;;;;;;;23.45;12.80;;;;;;;4.45;75.68;99177.70;1718492;82;21766;-76
2021/01/21 08:53:28;;;;;;;25.95;12.55;;;;;;;4.50;75.69;99172.25;1730563;81;21155;-76
2021/01/21 08:58:35;;;;;;;26.15;13.35;;;;;;;4.61;75.74;99166.36;1817252;77;22733;-76
2021/01/21 09:01:09;;;;;;;39.80;20.80;;;;;;;4.59;75.74;99156.44;1792263;78;21183;-76
2021/01/21 09:03:50;;;;;;;340.75;191.22;;;;;;;4.63;75.74;99152.49;1797666;78;21139;-76
2021/01/21 09:06:21;;;;;;;90.50;40.67;;;;;;;4.62;75.73;99147.70;1793011;78;21203;-75
2021/01/21 09:08:58;;;;;;;138.35;82.82;;;;;;;4.65;75.69;99150.50;1780955;79;21147;-76
2021/01/21 09:11:38;;;;;;;104.32;49.83;;;;;;;4.69;75.68;99142.59;1795123;78;21245;-75
2021/01/21 09:14:15;;;;;;;348.05;190.22;;;;;;;4.74;75.70;99142.94;1792607;78;21175;-75
2021/01/21 09:16:55;;;;;;;130.00;75.17;;;;;;;4.75;75.68;99138.00;1792691;78;21255;-76
2021/01/21 09:19:33;;;;;;;44.05;29.60;;;;;;;4.78;75.67;99142.45;1729059;81;21668;-75
2021/01/21 09:22:15;;;;;;;22.35;13.65;;;;;;;4.81;75.67;99137.33;1718395;82;21165;-76
2021/01/21 09:25:04;;;;;;;25.80;12.45;;;;;;;4.84;75.64;99139.16;1739765;81;21107;-76
2021/01/21 09:27:33;;;;;;;28.43;12.43;;;;;;;4.86;75.65;99139.80;1761921;80;21187;-75
2021/01/21 09:30:05;;;;;;;18.75;11.25;;;;;;;4.90;75.60;99148.22;1782975;80;21196;-75
2021/01/21 09:32:35;;;;;;;21.35;11.68;;;;;;;4.96;75.60;99155.51;1762482;79;21148;-75
2021/01/21 09:35:06;;;;;;;;;;;;;;;5.00;75.57;99162.09;1767834;79;21165;-75
2021/01/21 09:37:38;;;;;;;20.12;11.48;;;;;;;5.05;75.54;99161.11;1775149;80;20257;-76
2021/01/21 09:40:23;;;;;;;22.60;12.03;;;;;;;5.09;75.52;99170.36;1764271;80;21237;-76
2021/01/21 09:42:52;;;;;;;19.45;11.75;;;;;;;5.16;75.49;99162.11;1769579;80;21312;-76
2021/01/21 09:45:18;;;;;;;19.30;10.78;;;;;;;5.21;75.47;99163.73;1785970;80;21686;-76
2021/01/21 09:50:24;;;;;;;69.20;38.98;;;;;;;5.34;75.39;99157.47;1851451;77;22804;-76
2021/01/21 09:52:51;;;;;;;232.07;110.57;;;;;;;5.34;75.36;99157.47;1823584;78;21631;-76
2021/01/21 09:55:18;;;;;;;402.85;253.62;;;;;;;5.39;75.31;99156.45;1817027;77;21191;-76
2021/01/21 09:57:44;;;;;;;54.20;45.03;;;;;;;5.45;75.27;99159.74;1818271;77;21671;-76
2021/01/21 10:00:12;;;;;;;36.35;28.98;;;;;;;5.51;75.24;99172.31;1796217;78;21155;-77
2021/01/21 10:02:39;;;;;;;54.70;44.60;;;;;;;5.59;75.19;99168.01;1802318;78;21185;-77
2021/01/21 10:05:07;;;;;;;18.23;13.38;;;;;;;5.66;75.13;99160.56;1804948;79;21207;-77
2021/01/21 10:10:07;;;;;;;35.68;18.15;;;;;;;5.81;74.96;99161.98;1631598;86;21650;-76
2021/01/21 10:12:34;;;;;;;17.00;10.98;;;;;;;5.88;74.92;99151.91;1665171;85;21753;-76
2021/01/21 10:15:01;;;;;;;22.60;11.55;;;;;;;5.93;74.88;99144.30;1620792;87;21215;-76
2021/01/21 10:17:27;;;;;;;25.40;15.23;;;;;;;5.95;74.86;99136.17;1654436;85;21192;-76
2021/01/21 10:19:53;;;;;;;68.12;35.65;;;;;;;5.98;74.82;99130.03;1651109;86;21284;-76
2021/01/21 10:22:20;;;;;;;85.25;42.10;;;;;;;5.99;74.75;99129.55;1671858;85;21210;-76
2021/01/21 10:24:48;;;;;;;87.10;43.48;;;;;;;5.99;74.69;99128.22;1652651;85;21165;-76
2021/01/21 10:27:15;;;;;;;103.60;49.93;;;;;;;6.00;74.63;99120.62;1662979;85;21232;-76
2021/01/21 10:29:42;;;;;;;98.70;50.48;;;;;;;6.01;74.57;99109.05;1654827;86;21639;-76
2021/01/21 10:32:08;;;;;;;61.50;24.90;;;;;;;6.01;74.46;99119.63;1633885;85;21242;-77
2021/01/21 10:34:35;;;;;;;37.80;22.27;;;;;;;6.05;74.37;99117.47;1663243;85;21228;-77
2021/01/21 10:37:02;;;;;;;47.30;27.13;;;;;;;6.10;74.28;99115.11;1638774;86;21190;-76
2021/01/21 10:39:29;;;;;;;26.93;14.85;;;;;;;6.15;74.21;99109.64;1615480;87;21217;-76
2021/01/21 10:41:55;;;;;;;46.70;30.40;;;;;;;6.22;74.12;99099.17;1617538;87;21264;-76
2021/01/21 10:44:21;;;;;;;40.08;25.40;;;;;;;6.28;74.09;99093.18;1620728;87;22608;-76
2021/01/21 10:46:50;;;;;;;25.40;15.70;;;;;;;6.35;73.98;99108.20;1649260;85;21208;-76
2021/01/21 10:49:16;;;;;;;20.60;12.07;;;;;;;6.39;73.94;99104.20;1659475;85;21172;-76
2021/01/21 10:51:43;;;;;;;16.80;11.35;;;;;;;6.47;73.88;99120.02;1656195;86;21196;-77
2021/01/21 10:54:09;;;;;;;17.85;11.73;;;;;;;6.53;73.81;99116.69;1631934;86;21193;-75
2021/01/21 10:56:35;;;;;;;18.90;11.10;;;;;;;6.57;73.72;99117.66;1655443;86;21650;-76
2021/01/21 10:59:02;;;;;;;16.32;10.05;;;;;;;6.62;73.66;99114.80;1655321;86;21189;-77
2021/01/21 11:01:30;;;;;;;58.35;34.38;;;;;;;6.64;73.59;99122.58;1654357;86;21208;-76
2021/01/21 11:03:57;;;;;;;61.25;35.35;;;;;;;6.66;73.50;99116.09;1654885;86;21647;-76
2021/01/21 11:06:23;;;;;;;23.05;15.15;;;;;;;6.68;73.44;99117.26;1646014;86;21218;-76
2021/01/21 11:08:51;;;;;;;26.90;16.60;;;;;;;6.67;73.37;99108.98;1626624;87;21291;-76
2021/01/21 11:11:17;;;;;;;27.17;15.35;;;;;;;6.70;73.32;99111.27;1661951;86;21614;-76
2021/01/21 11:13:43;;;;;;;24.35;13.48;;;;;;;6.74;73.28;99104.63;1643692;87;21204;-76
2021/01/21 11:16:10;;;;;;;12.15;8.43;;;;;;;6.75;73.21;99101.81;1643317;86;21240;-76
2021/01/21 11:18:36;;;;;;;30.43;13.35;;;;;;;6.79;73.14;99100.95;1643894;86;21221;-76
2021/01/21 11:21:03;;;;;;;17.27;9.50;;;;;;;6.83;73.07;99094.27;1664972;86;21228;-76
2021/01/21 11:23:30;;;;;;;20.72;9.53;;;;;;;6.85;73.01;99094.44;1637831;87;21271;-76
2021/01/21 11:25:57;;;;;;;14.03;7.62;;;;;;;6.87;72.93;99094.24;1664498;86;21175;-76
2021/01/21 11:28:23;;;;;;;17.23;9.63;;;;;;;6.90;72.83;99080.63;1638088;87;21181;-76
2021/01/21 11:30:50;;;;;;;17.48;10.63;;;;;;;6.95;72.76;99082.26;1664672;86;21135;-77
2021/01/21 11:33:16;;;;;;;18.75;8.63;;;;;;;6.99;72.68;99084.88;1638196;87;22110;-76
2021/01/21 11:35:43;;;;;;;21.48;11.80;;;;;;;7.03;72.63;99076.40;1664479;86;21195;-76
2021/01/21 11:38:09;;;;;;;21.55;12.82;;;;;;;7.04;72.58;99071.39;1652595;85;21183;-77
2021/01/21 11:40:35;;;;;;;34.40;22.30;;;;;;;7.05;72.50;99062.95;1697663;84;21176;-77
2021/01/21 11:43:02;;;;;;;17.95;11.30;;;;;;;7.07;72.44;99076.03;1653934;85;21178;-77
2021/01/21 11:45:30;;;;;;;19.27;11.05;;;;;;;7.07;72.37;99066.27;1681060;84;22089;-77
2021/01/21 11:47:56;;;;;;;15.05;8.50;;;;;;;7.04;72.28;99062.13;1684187;84;21564;-76
2021/01/21 11:50:23;;;;;;;25.35;13.98;;;;;;;7.04;72.23;99062.13;1663619;86;21160;-76
2021/01/21 11:52:49;;;;;;;19.17;10.20;;;;;;;7.06;72.16;99062.45;1680888;85;21203;-76
2021/01/21 11:55:15;;;;;;;17.60;11.45;;;;;;;7.06;72.09;99045.22;1669567;84;21225;-76
2021/01/21 11:57:44;;;;;;;22.05;13.88;;;;;;;7.07;72.00;99058.80;1683778;85;21211;-76
2021/01/21 12:00:13;;;;;;;15.23;8.30;;;;;;;7.07;71.92;99050.36;1683976;85;21191;-76
2021/01/21 12:02:39;;;;;;;15.25;9.98;;;;;;;7.12;71.88;99050.63;1670703;84;21188;-76
2021/01/21 12:05:08;;;;;;;20.25;11.53;;;;;;;7.16;71.82;99050.59;1694386;84;21145;-76
2021/01/21 12:07:34;;;;;;;18.20;10.43;;;;;;;7.20;71.74;99037.29;1645800;85;21186;-76
2021/01/21 12:10:02;;;;;;;20.40;11.20;;;;;;;7.28;71.66;99042.48;1685049;84;21291;-76
2021/01/21 12:12:29;;;;;;;18.27;11.60;;;;;;;7.34;71.59;99041.78;1678639;84;21600;-75
2021/01/21 12:14:55;;;;;;;25.50;11.53;;;;;;;7.42;71.56;99044.32;1664684;84;21219;-76
2021/01/21 12:17:21;;;;;;;15.83;9.85;;;;;;;7.48;71.48;99042.28;1670056;84;21496;-76
2021/01/21 12:19:48;;;;;;;23.40;13.30;;;;;;;7.55;71.44;99030.43;1688738;85;21144;-76
2021/01/21 12:22:14;;;;;;;20.45;10.82;;;;;;;7.62;71.37;99035.82;1689033;84;21203;-76
2021/01/21 12:24:41;;;;;;;22.37;14.90;;;;;;;7.66;71.31;99037.93;1680197;85;21267;-76